createdAt,value
2019-03-06T00:00:00.437Z,12.10
2019-03-06T00:02:31.197Z,11.70
2019-03-06T00:05:01.778Z,11.67
2019-03-06T00:07:32.019Z,11.77
2019-03-06T00:10:02.275Z,13.07
2019-03-06T00:12:32.451Z,11.87
2019-03-06T00:15:03.025Z,12.87
2019-03-06T00:17:33.856Z,12.97
2019-03-06T00:20:04.107Z,12.17
2019-03-06T00:22:34.932Z,13.03
2019-03-06T00:25:05.423Z,12.37
2019-03-06T00:27:35.631Z,12.97
2019-03-06T00:30:06.549Z,12.73
2019-03-06T00:32:37.075Z,13.03
2019-03-06T00:35:11.819Z,13.33
2019-03-06T00:37:42.059Z,13.10
2019-03-06T00:40:25.911Z,12.53
2019-03-06T00:42:56.657Z,12.37
2019-03-06T00:45:26.909Z,12.50
2019-03-06T00:47:57.646Z,11.97
2019-03-06T00:50:27.825Z,11.40
2019-03-06T00:52:58.035Z,11.57
2019-03-06T00:55:28.241Z,11.57
2019-03-06T00:57:58.481Z,11.73
2019-03-06T01:00:29.183Z,11.17
2019-03-06T01:03:00.284Z,11.07
2019-03-06T01:05:30.575Z,11.13
2019-03-06T01:08:00.919Z,10.97
2019-03-06T01:10:31.202Z,10.50
2019-03-06T01:13:01.504Z,11.43
2019-03-06T01:15:31.827Z,10.20
2019-03-06T01:18:02.156Z,11.03
2019-03-06T01:20:33.242Z,10.07
2019-03-06T01:23:03.883Z,10.10
2019-03-06T01:25:34.373Z,9.27
2019-03-06T01:28:04.668Z,9.30
2019-03-06T01:30:35.245Z,8.80
2019-03-06T01:33:11.981Z,8.67
2019-03-06T01:35:51.716Z,9.03
2019-03-06T01:38:36.714Z,8.73
2019-03-06T01:41:16.720Z,8.50
2019-03-06T01:43:51.426Z,9.07
2019-03-06T01:46:21.742Z,7.60
2019-03-06T01:48:52.345Z,8.17
2019-03-06T01:51:22.854Z,8.00
2019-03-06T01:53:53.490Z,8.00
2019-03-06T01:56:23.714Z,7.90
2019-03-06T01:58:53.931Z,7.00
2019-03-06T02:01:24.205Z,7.27
2019-03-06T02:03:54.538Z,7.17
2019-03-06T02:06:24.740Z,7.00
2019-03-06T02:08:54.988Z,7.07
2019-03-06T02:11:25.442Z,7.10
2019-03-06T02:13:56.109Z,6.90
2019-03-06T02:16:26.311Z,6.80
2019-03-06T02:18:56.564Z,6.13
2019-03-06T02:21:26.843Z,5.73
2019-03-06T02:23:57.373Z,6.07
2019-03-06T02:26:27.697Z,5.33
2019-03-06T02:28:57.923Z,6.20
2019-03-06T02:31:28.170Z,4.90
2019-03-06T02:33:58.432Z,5.33
2019-03-06T02:36:28.767Z,5.80
2019-03-06T02:38:58.992Z,5.30
2019-03-06T02:41:29.236Z,5.50
2019-03-06T02:44:02.076Z,5.10
2019-03-06T02:46:32.763Z,4.90
2019-03-06T02:49:02.953Z,4.30
2019-03-06T02:51:33.599Z,5.17
2019-03-06T02:54:03.838Z,4.50
2019-03-06T02:56:34.085Z,4.70
2019-03-06T02:59:16.509Z,4.10
2019-03-06T03:01:58.718Z,4.40
2019-03-06T03:04:46.782Z,4.50
2019-03-06T03:07:19.130Z,4.07
2019-03-06T03:09:49.324Z,4.07
2019-03-06T03:12:19.567Z,3.70
2019-03-06T03:14:49.765Z,3.47
2019-03-06T03:17:20.005Z,3.40
2019-03-06T03:19:51.261Z,3.47
2019-03-06T03:22:21.821Z,3.50
2019-03-06T03:24:52.345Z,3.47
2019-03-06T03:27:22.549Z,3.50
2019-03-06T03:29:53.629Z,3.33
2019-03-06T03:32:23.849Z,3.17
2019-03-06T03:34:54.164Z,3.00
2019-03-06T03:37:24.458Z,3.03
2019-03-06T03:39:54.672Z,3.20
2019-03-06T03:42:24.938Z,3.27
2019-03-06T03:44:55.634Z,2.83
2019-03-06T03:47:25.978Z,2.73
2019-03-06T03:49:56.221Z,2.93
2019-03-06T03:52:26.448Z,3.00
2019-03-06T03:54:57.322Z,2.70
2019-03-06T03:57:28.269Z,2.70
2019-03-06T03:59:59.409Z,3.00
2019-03-06T04:02:29.785Z,2.70
2019-03-06T04:05:00.755Z,2.80
2019-03-06T04:07:31.099Z,2.60
2019-03-06T04:10:01.317Z,2.50
2019-03-06T04:12:34.154Z,2.50
2019-03-06T04:15:04.001Z,2.30
2019-03-06T04:17:34.250Z,2.87
2019-03-06T04:20:04.688Z,2.47
2019-03-06T04:22:35.224Z,2.30
2019-03-06T04:25:05.497Z,2.20
2019-03-06T04:27:36.395Z,2.57
2019-03-06T04:30:09.825Z,2.10
2019-03-06T04:32:40.409Z,2.30
2019-03-06T04:35:10.672Z,2.20
2019-03-06T04:37:41.282Z,2.30
2019-03-06T04:40:12.903Z,2.17
2019-03-06T04:42:43.147Z,2.40
2019-03-06T04:45:13.635Z,2.30
2019-03-06T04:47:43.854Z,2.37
2019-03-06T04:50:15.136Z,2.00
2019-03-06T04:52:45.555Z,2.10
2019-03-06T04:55:16.155Z,2.33
2019-03-06T04:57:46.377Z,2.43
2019-03-06T05:00:16.968Z,2.27
2019-03-06T05:02:47.911Z,2.30
2019-03-06T05:05:18.159Z,2.00
2019-03-06T05:07:48.732Z,1.97
2019-03-06T05:10:18.933Z,1.90
2019-03-06T05:12:49.178Z,2.00
2019-03-06T05:15:19.655Z,2.50
2019-03-06T05:18:03.926Z,2.30
2019-03-06T05:20:34.135Z,2.23
2019-03-06T05:23:04.700Z,2.20
2019-03-06T05:25:36.124Z,2.23
2019-03-06T05:28:07.957Z,2.20
2019-03-06T05:30:38.587Z,2.67
2019-03-06T05:33:09.977Z,2.20
2019-03-06T05:36:42.677Z,2.63
2019-03-06T05:39:13.561Z,2.10
2019-03-06T05:41:43.778Z,2.03
2019-03-06T05:44:14.021Z,2.10
2019-03-06T05:46:44.240Z,1.97
2019-03-06T05:49:14.858Z,2.10
2019-03-06T05:51:45.062Z,2.00
2019-03-06T05:54:15.338Z,2.00
2019-03-06T05:56:45.561Z,2.00
2019-03-06T05:59:15.805Z,1.90
2019-03-06T06:01:46.418Z,1.90
2019-03-06T06:04:16.985Z,2.20
2019-03-06T06:06:47.267Z,2.30
2019-03-06T06:09:17.522Z,2.10
2019-03-06T06:11:47.872Z,2.13
2019-03-06T06:14:18.134Z,2.27
2019-03-06T06:16:48.900Z,2.13
2019-03-06T06:19:19.548Z,2.33
2019-03-06T06:22:11.983Z,1.80
2019-03-06T06:24:43.180Z,2.00
2019-03-06T06:27:13.691Z,2.03
2019-03-06T06:29:44.160Z,2.10
2019-03-06T06:32:14.673Z,1.90
2019-03-06T06:34:45.109Z,2.17
2019-03-06T06:37:15.786Z,2.00
2019-03-06T06:39:46.164Z,2.13
2019-03-06T06:42:16.565Z,2.40
2019-03-06T06:44:47.245Z,2.60
2019-03-06T06:47:17.581Z,2.50
2019-03-06T06:49:48.199Z,2.30
2019-03-06T06:53:15.265Z,2.33
2019-03-06T06:56:01.525Z,2.40
2019-03-06T06:59:14.255Z,2.10
2019-03-06T07:02:55.239Z,2.70
2019-03-06T07:05:36.035Z,2.33
2019-03-06T07:08:37.565Z,2.30
2019-03-06T07:11:27.337Z,2.30
2019-03-06T07:14:09.150Z,2.80
2019-03-06T07:16:58.397Z,2.40
2019-03-06T07:19:47.643Z,2.67
2019-03-06T07:22:40.729Z,2.60
2019-03-06T07:25:28.847Z,2.60
2019-03-06T07:28:12.119Z,2.57
2019-03-06T07:31:00.414Z,2.60
2019-03-06T07:33:45.814Z,2.63
2019-03-06T07:36:33.948Z,2.50
2019-03-06T07:39:24.515Z,2.73
2019-03-06T07:42:12.853Z,2.90
2019-03-06T07:45:08.870Z,2.90
2019-03-06T07:47:56.939Z,3.03
2019-03-06T07:50:55.533Z,2.77
2019-03-06T07:54:06.317Z,2.73
2019-03-06T07:56:42.309Z,3.13
2019-03-06T07:59:12.931Z,3.60
2019-03-06T08:02:07.604Z,3.10
2019-03-06T08:04:37.881Z,3.30
2019-03-06T08:07:15.540Z,3.13
2019-03-06T08:09:45.937Z,3.10
2019-03-06T08:12:34.480Z,3.20
2019-03-06T08:15:23.436Z,3.43
2019-03-06T08:18:12.729Z,2.97
2019-03-06T08:21:14.643Z,3.40
2019-03-06T08:24:16.304Z,3.70
2019-03-06T08:26:46.790Z,3.30
2019-03-06T08:29:17.222Z,3.13
2019-03-06T08:31:56.367Z,2.77
2019-03-06T08:34:26.830Z,3.43
2019-03-06T08:36:57.975Z,3.30
2019-03-06T08:39:28.288Z,3.40
2019-03-06T08:41:58.641Z,3.47
2019-03-06T08:44:29.471Z,3.60
2019-03-06T08:47:13.784Z,3.30
2019-03-06T08:50:15.557Z,3.43
2019-03-06T08:53:07.898Z,3.50
2019-03-06T08:55:52.592Z,3.70
2019-03-06T08:58:41.980Z,3.80
2019-03-06T09:01:40.777Z,4.03
2019-03-06T09:04:29.051Z,3.80
2019-03-06T09:07:10.108Z,3.97
2019-03-06T09:10:08.615Z,3.93
2019-03-06T09:12:50.395Z,3.60
2019-03-06T09:15:46.771Z,3.83
2019-03-06T09:18:32.383Z,4.20
2019-03-06T09:21:20.324Z,4.00
2019-03-06T09:24:04.837Z,4.33
2019-03-06T09:26:48.111Z,3.93
2019-03-06T09:29:46.505Z,3.80
2019-03-06T09:32:25.246Z,4.07
2019-03-06T09:35:08.739Z,3.80
2019-03-06T09:37:59.042Z,4.10
2019-03-06T09:40:46.631Z,3.90
2019-03-06T09:43:31.061Z,3.70
2019-03-06T09:46:15.323Z,4.13
2019-03-06T09:48:51.563Z,3.73
2019-03-06T09:51:52.964Z,3.43
2019-03-06T09:54:45.640Z,3.50
2019-03-06T09:57:31.311Z,3.80
2019-03-06T10:00:07.752Z,3.73
2019-03-06T10:02:52.942Z,4.27
2019-03-06T10:05:45.566Z,3.93
2019-03-06T10:08:26.041Z,4.00
2019-03-06T10:11:20.167Z,3.70
2019-03-06T10:13:59.095Z,3.47
2019-03-06T10:16:48.967Z,3.57
2019-03-06T10:19:36.100Z,3.60
2019-03-06T10:22:06.360Z,3.30
2019-03-06T10:24:36.716Z,3.63
2019-03-06T10:27:07.091Z,3.47
2019-03-06T10:29:37.911Z,3.90
2019-03-06T10:32:08.642Z,4.13
2019-03-06T10:34:39.328Z,3.50
2019-03-06T10:37:09.829Z,3.60
2019-03-06T10:39:40.359Z,3.50
2019-03-06T10:42:10.715Z,3.63
2019-03-06T10:44:41.199Z,3.93
2019-03-06T10:47:11.610Z,4.03
2019-03-06T10:49:41.936Z,3.93
2019-03-06T10:52:12.280Z,4.50
2019-03-06T10:57:14.877Z,4.23
2019-03-06T10:59:45.406Z,4.10
2019-03-06T11:02:15.942Z,4.00
2019-03-06T11:04:50.426Z,4.40
2019-03-06T11:07:22.076Z,4.30
2019-03-06T11:09:52.915Z,4.40
2019-03-06T11:12:23.274Z,4.13
2019-03-06T11:14:53.675Z,3.90
2019-03-06T11:17:25.210Z,4.17
2019-03-06T11:19:56.353Z,4.40
2019-03-06T11:22:27.115Z,4.73
2019-03-06T11:24:57.467Z,4.37
2019-03-06T11:27:28.174Z,4.63
2019-03-06T11:29:58.725Z,4.63
2019-03-06T11:32:29.513Z,4.00
2019-03-06T11:34:59.804Z,4.60
2019-03-06T11:37:30.138Z,4.83
2019-03-06T11:40:00.487Z,4.30
2019-03-06T11:42:31.160Z,4.43
2019-03-06T11:45:01.776Z,4.30
2019-03-06T11:47:32.215Z,4.47
2019-03-06T11:50:02.941Z,4.60
2019-03-06T11:52:34.786Z,4.30
2019-03-06T11:55:07.216Z,4.00
2019-03-06T11:57:38.810Z,3.93
2019-03-06T12:00:18.661Z,4.33
2019-03-06T12:02:49.372Z,3.90
2019-03-06T12:05:22.196Z,4.10
2019-03-06T12:07:52.659Z,4.20
2019-03-06T12:10:23.845Z,3.93
2019-03-06T12:12:54.624Z,4.23
2019-03-06T12:15:25.609Z,4.10
2019-03-06T12:17:55.978Z,3.80
2019-03-06T12:20:26.264Z,4.17
2019-03-06T12:22:56.868Z,4.33
2019-03-06T12:25:27.284Z,3.90
2019-03-06T12:27:58.024Z,3.80
2019-03-06T12:30:28.851Z,3.60
2019-03-06T12:32:59.256Z,4.23
2019-03-06T12:35:29.716Z,4.10
2019-03-06T12:38:00.321Z,3.70
2019-03-06T12:40:32.705Z,3.70
2019-03-06T12:43:05.639Z,4.10
2019-03-06T12:45:36.427Z,3.87
2019-03-06T12:48:09.298Z,3.70
2019-03-06T12:50:40.437Z,4.37
2019-03-06T12:53:11.473Z,4.17
2019-03-06T12:55:42.742Z,4.70
2019-03-06T12:58:13.392Z,4.23
2019-03-06T13:00:43.680Z,4.53
2019-03-06T13:03:14.404Z,4.70
2019-03-06T13:05:45.148Z,4.37
2019-03-06T13:08:19.753Z,4.47
2019-03-06T13:10:48.179Z,4.70
2019-03-06T13:13:19.554Z,5.00
2019-03-06T13:15:49.933Z,4.53
2019-03-06T13:18:20.309Z,5.20
2019-03-06T13:20:51.101Z,5.07
2019-03-06T13:23:21.977Z,4.87
2019-03-06T13:25:54.114Z,4.97
2019-03-06T13:28:24.738Z,4.97
2019-03-06T13:30:55.088Z,5.10
2019-03-06T13:33:50.463Z,4.93
2019-03-06T13:36:20.947Z,4.70
2019-03-06T13:38:54.964Z,5.60
2019-03-06T13:41:23.965Z,5.27
2019-03-06T13:43:54.301Z,5.40
2019-03-06T13:46:24.945Z,5.20
2019-03-06T13:48:55.315Z,5.87
2019-03-06T13:51:26.049Z,5.07
2019-03-06T13:53:56.834Z,5.80
2019-03-06T13:56:27.216Z,5.87
2019-03-06T13:58:57.543Z,5.90
2019-03-06T14:01:28.017Z,5.47
2019-03-06T14:03:58.439Z,5.20
2019-03-06T14:06:28.787Z,5.10
2019-03-06T14:08:59.251Z,5.30
2019-03-06T14:11:29.573Z,5.53
2019-03-06T14:14:00.379Z,5.67
2019-03-06T14:16:31.203Z,5.30
2019-03-06T14:19:01.733Z,4.80
2019-03-06T14:21:35.054Z,4.97
2019-03-06T14:24:05.496Z,5.33
2019-03-06T14:26:36.178Z,5.00
2019-03-06T14:29:07.226Z,4.87
2019-03-06T14:31:37.629Z,5.30
2019-03-06T14:34:08.556Z,5.08
2019-03-06T14:36:39.302Z,5.20
2019-03-06T14:39:27.352Z,4.90
2019-03-06T14:41:59.447Z,4.83
2019-03-06T14:44:29.832Z,5.03
2019-03-06T14:47:00.544Z,5.03
2019-03-06T14:49:31.282Z,5.10
2019-03-06T14:52:07.136Z,5.80
2019-03-06T14:54:34.011Z,4.73
2019-03-06T14:57:04.490Z,4.73
2019-03-06T14:59:34.839Z,5.50
2019-03-06T15:02:05.146Z,4.40
2019-03-06T15:04:35.867Z,5.60
2019-03-06T15:07:06.351Z,5.57
2019-03-06T15:09:37.385Z,5.20
2019-03-06T15:12:08.863Z,5.13
2019-03-06T15:14:39.184Z,5.40
2019-03-06T15:17:09.540Z,5.43
2019-03-06T15:19:39.970Z,5.80
2019-03-06T15:22:10.782Z,4.80
2019-03-06T15:24:41.993Z,5.50
2019-03-06T15:27:12.628Z,5.17
2019-03-06T15:29:43.032Z,5.43
2019-03-06T15:32:13.399Z,5.60
2019-03-06T15:34:43.697Z,4.90
2019-03-06T15:37:14.039Z,5.00
2019-03-06T15:39:48.823Z,4.83
2019-03-06T15:42:17.390Z,5.13
2019-03-06T15:44:47.761Z,5.40
2019-03-06T15:47:18.502Z,5.27
2019-03-06T15:49:48.946Z,5.70
2019-03-06T15:52:19.418Z,5.43
2019-03-06T15:54:49.954Z,5.57
2019-03-06T15:57:20.331Z,5.20
2019-03-06T15:59:50.843Z,5.53
2019-03-06T16:02:21.185Z,5.50
2019-03-06T16:04:51.458Z,5.53
2019-03-06T16:07:22.067Z,5.63
2019-03-06T16:09:52.387Z,5.23
2019-03-06T16:12:22.814Z,5.90
2019-03-06T16:14:53.456Z,5.57
2019-03-06T16:17:24.047Z,6.13
2019-03-06T16:19:54.379Z,5.67
2019-03-06T16:22:25.085Z,5.27
2019-03-06T16:24:55.483Z,6.07
2019-03-06T16:27:25.845Z,5.60
2019-03-06T16:29:56.529Z,5.87
2019-03-06T16:32:28.078Z,6.03
2019-03-06T16:34:58.805Z,5.63
2019-03-06T16:37:29.229Z,5.50
2019-03-06T16:39:59.530Z,5.97
2019-03-06T16:42:30.623Z,4.73
2019-03-06T16:45:01.004Z,5.50
2019-03-06T16:47:31.330Z,5.20
2019-03-06T16:50:02.093Z,5.10
2019-03-06T16:52:32.464Z,4.70
2019-03-06T16:55:02.769Z,5.10
2019-03-06T16:57:33.233Z,4.77
2019-03-06T17:00:05.258Z,5.03
2019-03-06T17:02:35.951Z,5.20
2019-03-06T17:05:06.301Z,5.00
2019-03-06T17:07:36.905Z,5.10
2019-03-06T17:10:07.707Z,4.97
2019-03-06T17:12:38.017Z,5.57
2019-03-06T17:15:08.491Z,5.30
2019-03-06T17:17:38.819Z,5.40
2019-03-06T17:20:09.498Z,5.60
2019-03-06T17:22:39.900Z,5.67
2019-03-06T17:25:10.558Z,5.10
2019-03-06T17:27:41.547Z,5.23
2019-03-06T17:30:15.218Z,5.00
2019-03-06T17:33:05.302Z,5.77
2019-03-06T17:35:35.974Z,5.93
2019-03-06T17:38:07.298Z,5.50
2019-03-06T17:40:37.962Z,5.50
2019-03-06T17:43:09.572Z,5.23
2019-03-06T17:45:40.562Z,6.00
2019-03-06T17:48:11.315Z,5.63
2019-03-06T17:50:41.872Z,5.43
2019-03-06T17:53:12.286Z,5.87
2019-03-06T17:55:43.119Z,5.43
2019-03-06T17:58:13.628Z,5.83
2019-03-06T18:00:49.911Z,5.23
2019-03-06T18:03:25.832Z,5.37
2019-03-06T18:05:56.090Z,5.40
2019-03-06T18:08:26.349Z,5.50
2019-03-06T18:10:57.078Z,5.10
2019-03-06T18:13:27.410Z,5.40
2019-03-06T18:15:57.631Z,5.53
2019-03-06T18:18:29.210Z,5.50
2019-03-06T18:20:59.535Z,5.67
2019-03-06T18:23:30.249Z,6.10
2019-03-06T18:26:00.836Z,5.97
2019-03-06T18:28:31.079Z,5.70
2019-03-06T18:31:01.348Z,6.20
2019-03-06T18:33:32.803Z,6.00
2019-03-06T18:36:03.562Z,6.27
2019-03-06T18:38:33.828Z,6.53
2019-03-06T18:41:04.196Z,6.13
2019-03-06T18:43:34.868Z,6.37
2019-03-06T18:46:05.234Z,5.83
2019-03-06T18:48:35.498Z,6.20
2019-03-06T18:51:05.888Z,5.93
2019-03-06T18:53:36.867Z,6.00
2019-03-06T18:56:08.078Z,6.00
2019-03-06T18:58:38.331Z,6.37
2019-03-06T19:01:08.576Z,5.67
2019-03-06T19:03:38.765Z,5.90
2019-03-06T19:06:09.334Z,6.00
2019-03-06T19:08:39.904Z,6.57
2019-03-06T19:11:16.790Z,6.00
2019-03-06T19:13:42.364Z,6.20
2019-03-06T19:16:12.632Z,6.33
2019-03-06T19:18:43.148Z,6.43
2019-03-06T19:21:13.546Z,6.63
2019-03-06T19:23:45.808Z,6.50
2019-03-06T19:26:16.652Z,6.60
2019-03-06T19:28:46.885Z,7.23
2019-03-06T19:31:17.183Z,6.80
2019-03-06T19:33:47.759Z,6.60
2019-03-06T19:36:18.368Z,6.90
2019-03-06T19:38:48.898Z,7.27
2019-03-06T19:41:19.421Z,6.90
2019-03-06T19:43:49.674Z,7.30
2019-03-06T19:46:20.275Z,7.30
2019-03-06T19:48:50.525Z,6.93
2019-03-06T19:51:20.744Z,6.93
2019-03-06T19:53:51.237Z,7.00
2019-03-06T19:56:21.465Z,7.27
2019-03-06T19:58:52.183Z,7.17
2019-03-06T20:01:23.095Z,7.10
2019-03-06T20:03:53.335Z,7.67
2019-03-06T20:06:27.064Z,7.00
2019-03-06T20:08:55.419Z,6.80
2019-03-06T20:11:25.747Z,6.83
2019-03-06T20:13:55.997Z,6.50
2019-03-06T20:16:26.179Z,6.70
2019-03-06T20:18:56.402Z,6.50
2019-03-06T20:21:26.640Z,6.33
2019-03-06T20:23:56.902Z,6.37
2019-03-06T20:26:27.257Z,6.05
2019-03-06T20:28:57.509Z,6.03
2019-03-06T20:31:28.036Z,5.90
2019-03-06T20:33:59.188Z,5.83
2019-03-06T20:36:29.823Z,5.20
2019-03-06T20:39:00.018Z,5.80
2019-03-06T20:41:30.321Z,5.70
2019-03-06T20:44:00.889Z,5.50
2019-03-06T20:46:31.127Z,5.50
2019-03-06T20:49:01.356Z,5.50
2019-03-06T20:51:31.603Z,5.67
2019-03-06T20:54:02.222Z,5.47
2019-03-06T20:56:33.871Z,5.13
2019-03-06T20:59:04.207Z,5.40
2019-03-06T21:01:35.268Z,5.30
2019-03-06T21:04:05.490Z,5.53
2019-03-06T21:06:36.472Z,5.10
2019-03-06T21:09:07.082Z,5.30
2019-03-06T21:11:37.332Z,5.53
2019-03-06T21:14:08.390Z,5.80
2019-03-06T21:16:39.250Z,5.60
2019-03-06T21:19:09.505Z,5.80
2019-03-06T21:21:40.036Z,6.00
2019-03-06T21:24:10.247Z,5.87
2019-03-06T21:26:40.503Z,6.10
2019-03-06T21:29:11.023Z,6.17
2019-03-06T21:31:41.267Z,5.60
2019-03-06T21:34:11.538Z,5.93
2019-03-06T21:36:41.800Z,6.20
2019-03-06T21:39:25.849Z,6.40
2019-03-06T21:41:56.396Z,6.50
2019-03-06T21:44:26.735Z,6.80
2019-03-06T21:46:57.000Z,6.80
2019-03-06T21:49:27.266Z,6.93
2019-03-06T21:51:57.856Z,6.83
2019-03-06T21:54:28.393Z,6.70
2019-03-06T21:56:58.717Z,7.57
2019-03-06T21:59:29.350Z,7.33
2019-03-06T22:01:59.603Z,7.53
2019-03-06T22:04:29.958Z,7.13
2019-03-06T22:07:00.777Z,8.47
2019-03-06T22:09:30.997Z,7.77
2019-03-06T22:12:01.266Z,8.50
2019-03-06T22:14:31.544Z,8.60
2019-03-06T22:17:02.154Z,9.47
2019-03-06T22:19:32.459Z,9.20
2019-03-06T22:22:02.684Z,9.67
2019-03-06T22:24:32.967Z,9.87
2019-03-06T22:27:03.211Z,9.70
2019-03-06T22:29:33.472Z,9.50
2019-03-06T22:32:03.686Z,9.40
2019-03-06T22:34:34.177Z,9.00
2019-03-06T22:37:04.519Z,10.63
2019-03-06T22:39:34.983Z,9.00
2019-03-06T22:42:05.270Z,7.97
2019-03-06T22:44:35.565Z,9.10
2019-03-06T22:47:05.934Z,8.80
2019-03-06T22:49:37.707Z,8.60
2019-03-06T22:52:08.441Z,8.80
2019-03-06T22:54:38.680Z,8.80
2019-03-06T22:57:09.330Z,8.43
2019-03-06T22:59:40.449Z,8.97
2019-03-06T23:02:11.539Z,8.70
2019-03-06T23:04:41.863Z,9.07
2019-03-06T23:07:12.509Z,9.33
2019-03-06T23:09:43.471Z,9.30
2019-03-06T23:12:13.770Z,10.50
2019-03-06T23:14:46.678Z,10.20
2019-03-06T23:17:17.862Z,10.83
2019-03-06T23:19:48.495Z,10.90
2019-03-06T23:22:20.015Z,11.33
2019-03-06T23:24:50.576Z,11.00
2019-03-06T23:27:22.070Z,11.73
2019-03-06T23:29:52.815Z,12.70
2019-03-06T23:32:23.571Z,11.87
2019-03-06T23:34:53.839Z,12.57
2019-03-06T23:37:25.552Z,14.23
2019-03-06T23:39:55.836Z,14.40
2019-03-06T23:42:26.770Z,13.97
2019-03-06T23:44:57.062Z,14.93
2019-03-06T23:47:27.303Z,15.00
2019-03-06T23:49:59.001Z,15.40
2019-03-06T23:52:34.447Z,16.50
2019-03-06T23:55:04.976Z,16.90
2019-03-06T23:57:35.409Z,16.80
